sensor_id;sensor_type;location;lat;lon;timestamp;temperature;humidity
6581;DHT22;3324;50.796;7.228;2023-08-06T00:02:13;15.90;99.90
6581;DHT22;3324;50.796;7.228;2023-08-06T00:04:38;15.90;99.90
6581;DHT22;3324;50.796;7.228;2023-08-06T00:07:04;15.90;99.90
6581;DHT22;3324;50.796;7.228;2023-08-06T00:09:30;15.90;99.90
6581;DHT22;3324;50.796;7.228;2023-08-06T00:11:56;15.90;99.90
6581;DHT22;3324;50.796;7.228;2023-08-06T00:14:21;15.80;99.90
6581;DHT22;3324;50.796;7.228;2023-08-06T00:16:47;15.70;99.90
6581;DHT22;3324;50.796;7.228;2023-08-06T00:19:12;15.70;99.90
6581;DHT22;3324;50.796;7.228;2023-08-06T00:21:38;15.70;99.90
6581;DHT22;3324;50.796;7.228;2023-08-06T00:24:04;15.70;99.90
6581;DHT22;3324;50.796;7.228;2023-08-06T00:26:30;15.70;99.90
6581;DHT22;3324;50.796;7.228;2023-08-06T00:28:55;15.60;99.90
6581;DHT22;3324;50.796;7.228;2023-08-06T00:31:21;15.60;99.90
6581;DHT22;3324;50.796;7.228;2023-08-06T00:33:46;15.60;99.90
6581;DHT22;3324;50.796;7.228;2023-08-06T00:36:12;15.60;99.90
6581;DHT22;3324;50.796;7.228;2023-08-06T00:38:37;15.60;99.90
6581;DHT22;3324;50.796;7.228;2023-08-06T00:41:03;15.60;99.90
6581;DHT22;3324;50.796;7.228;2023-08-06T00:43:29;15.60;99.90
6581;DHT22;3324;50.796;7.228;2023-08-06T00:45:54;15.60;99.90
6581;DHT22;3324;50.796;7.228;2023-08-06T00:48:21;15.60;99.90
6581;DHT22;3324;50.796;7.228;2023-08-06T00:50:47;15.60;99.90
6581;DHT22;3324;50.796;7.228;2023-08-06T00:53:13;15.60;99.90
6581;DHT22;3324;50.796;7.228;2023-08-06T00:55:38;15.60;99.90
6581;DHT22;3324;50.796;7.228;2023-08-06T00:58:05;15.60;99.90
6581;DHT22;3324;50.796;7.228;2023-08-06T01:00:30;15.60;99.90
6581;DHT22;3324;50.796;7.228;2023-08-06T01:02:56;15.60;99.90
6581;DHT22;3324;50.796;7.228;2023-08-06T01:05:22;15.60;99.90
6581;DHT22;3324;50.796;7.228;2023-08-06T01:08:15;15.60;99.90
6581;DHT22;3324;50.796;7.228;2023-08-06T01:16:03;15.60;99.90
6581;DHT22;3324;50.796;7.228;2023-08-06T01:18:30;15.60;99.90
6581;DHT22;3324;50.796;7.228;2023-08-06T01:20:57;15.60;99.90
6581;DHT22;3324;50.796;7.228;2023-08-06T01:23:23;15.60;99.90
6581;DHT22;3324;50.796;7.228;2023-08-06T01:26:14;15.60;99.90
6581;DHT22;3324;50.796;7.228;2023-08-06T01:31:35;15.60;99.90
6581;DHT22;3324;50.796;7.228;2023-08-06T01:34:03;15.60;99.90
6581;DHT22;3324;50.796;7.228;2023-08-06T01:36:30;15.50;99.90
6581;DHT22;3324;50.796;7.228;2023-08-06T01:38:56;15.50;99.90
6581;DHT22;3324;50.796;7.228;2023-08-06T01:41:22;15.50;99.90
6581;DHT22;3324;50.796;7.228;2023-08-06T01:43:48;15.60;99.90
6581;DHT22;3324;50.796;7.228;2023-08-06T01:46:14;15.60;99.90
6581;DHT22;3324;50.796;7.228;2023-08-06T01:48:39;15.60;99.90
6581;DHT22;3324;50.796;7.228;2023-08-06T01:51:05;15.60;99.90
6581;DHT22;3324;50.796;7.228;2023-08-06T01:53:31;15.50;99.90
6581;DHT22;3324;50.796;7.228;2023-08-06T01:55:57;15.50;99.90
6581;DHT22;3324;50.796;7.228;2023-08-06T01:58:23;15.50;99.90
6581;DHT22;3324;50.796;7.228;2023-08-06T02:00:49;15.50;99.90
6581;DHT22;3324;50.796;7.228;2023-08-06T02:03:14;15.50;99.90
6581;DHT22;3324;50.796;7.228;2023-08-06T02:05:40;15.50;99.90
6581;DHT22;3324;50.796;7.228;2023-08-06T02:08:06;15.50;99.90
6581;DHT22;3324;50.796;7.228;2023-08-06T02:10:31;15.40;99.90
6581;DHT22;3324;50.796;7.228;2023-08-06T02:12:57;15.40;99.90
6581;DHT22;3324;50.796;7.228;2023-08-06T02:15:22;15.40;99.90
6581;DHT22;3324;50.796;7.228;2023-08-06T02:17:48;15.40;99.90
6581;DHT22;3324;50.796;7.228;2023-08-06T02:20:14;15.50;99.90
6581;DHT22;3324;50.796;7.228;2023-08-06T02:22:39;15.50;99.90
6581;DHT22;3324;50.796;7.228;2023-08-06T02:25:05;15.40;99.90
6581;DHT22;3324;50.796;7.228;2023-08-06T02:27:31;15.40;99.90
6581;DHT22;3324;50.796;7.228;2023-08-06T02:29:56;15.40;99.90
6581;DHT22;3324;50.796;7.228;2023-08-06T02:32:22;15.40;99.90
6581;DHT22;3324;50.796;7.228;2023-08-06T02:34:47;15.40;99.90
6581;DHT22;3324;50.796;7.228;2023-08-06T02:37:13;15.40;99.90
6581;DHT22;3324;50.796;7.228;2023-08-06T02:39:39;15.40;99.90
6581;DHT22;3324;50.796;7.228;2023-08-06T02:42:08;15.40;99.90
6581;DHT22;3324;50.796;7.228;2023-08-06T02:44:35;15.40;99.90
6581;DHT22;3324;50.796;7.228;2023-08-06T02:47:01;15.40;99.90
6581;DHT22;3324;50.796;7.228;2023-08-06T02:49:26;15.40;99.90
6581;DHT22;3324;50.796;7.228;2023-08-06T02:51:52;15.40;99.90
6581;DHT22;3324;50.796;7.228;2023-08-06T02:54:21;15.30;99.90
6581;DHT22;3324;50.796;7.228;2023-08-06T02:56:47;15.40;99.90
6581;DHT22;3324;50.796;7.228;2023-08-06T02:59:13;15.30;99.90
6581;DHT22;3324;50.796;7.228;2023-08-06T03:01:39;15.40;99.90
6581;DHT22;3324;50.796;7.228;2023-08-06T03:04:05;15.40;99.90
6581;DHT22;3324;50.796;7.228;2023-08-06T03:06:31;15.50;99.90
6581;DHT22;3324;50.796;7.228;2023-08-06T03:08:56;15.40;99.90
6581;DHT22;3324;50.796;7.228;2023-08-06T03:11:22;15.40;99.90
6581;DHT22;3324;50.796;7.228;2023-08-06T03:13:48;15.40;99.90
6581;DHT22;3324;50.796;7.228;2023-08-06T03:16:14;15.40;99.90
6581;DHT22;3324;50.796;7.228;2023-08-06T03:18:39;15.40;99.90
6581;DHT22;3324;50.796;7.228;2023-08-06T03:21:05;15.40;99.90
6581;DHT22;3324;50.796;7.228;2023-08-06T03:23:31;15.40;99.90
6581;DHT22;3324;50.796;7.228;2023-08-06T03:26:01;15.40;99.90
6581;DHT22;3324;50.796;7.228;2023-08-06T03:28:28;15.40;99.90
6581;DHT22;3324;50.796;7.228;2023-08-06T03:31:03;15.40;99.90
6581;DHT22;3324;50.796;7.228;2023-08-06T03:33:29;15.40;99.90
6581;DHT22;3324;50.796;7.228;2023-08-06T03:35:55;15.40;99.90
6581;DHT22;3324;50.796;7.228;2023-08-06T03:38:21;15.40;99.90
6581;DHT22;3324;50.796;7.228;2023-08-06T03:40:46;15.30;99.90
6581;DHT22;3324;50.796;7.228;2023-08-06T03:43:12;15.30;99.90
6581;DHT22;3324;50.796;7.228;2023-08-06T03:45:38;15.40;99.90
6581;DHT22;3324;50.796;7.228;2023-08-06T03:48:04;15.40;99.90
6581;DHT22;3324;50.796;7.228;2023-08-06T03:50:29;15.40;99.90
6581;DHT22;3324;50.796;7.228;2023-08-06T03:52:55;15.40;99.90
6581;DHT22;3324;50.796;7.228;2023-08-06T03:55:21;15.30;99.90
6581;DHT22;3324;50.796;7.228;2023-08-06T03:57:46;15.30;99.90
6581;DHT22;3324;50.796;7.228;2023-08-06T04:00:12;15.30;99.90
6581;DHT22;3324;50.796;7.228;2023-08-06T04:02:38;15.30;99.90
6581;DHT22;3324;50.796;7.228;2023-08-06T04:05:04;15.40;99.90
6581;DHT22;3324;50.796;7.228;2023-08-06T04:07:29;15.30;99.90
6581;DHT22;3324;50.796;7.228;2023-08-06T04:09:58;15.30;99.90
6581;DHT22;3324;50.796;7.228;2023-08-06T04:12:24;15.30;99.90
6581;DHT22;3324;50.796;7.228;2023-08-06T04:14:50;15.30;99.90
6581;DHT22;3324;50.796;7.228;2023-08-06T04:17:18;15.30;99.90
6581;DHT22;3324;50.796;7.228;2023-08-06T04:19:51;15.20;99.90
6581;DHT22;3324;50.796;7.228;2023-08-06T04:22:17;15.20;99.90
6581;DHT22;3324;50.796;7.228;2023-08-06T04:24:43;15.30;99.90
6581;DHT22;3324;50.796;7.228;2023-08-06T04:27:09;15.30;99.90
6581;DHT22;3324;50.796;7.228;2023-08-06T04:29:35;15.30;99.90
6581;DHT22;3324;50.796;7.228;2023-08-06T04:32:01;15.20;99.90
6581;DHT22;3324;50.796;7.228;2023-08-06T04:34:26;15.20;99.90
6581;DHT22;3324;50.796;7.228;2023-08-06T04:36:52;15.30;99.90
6581;DHT22;3324;50.796;7.228;2023-08-06T04:39:17;15.20;99.90
6581;DHT22;3324;50.796;7.228;2023-08-06T04:41:43;15.30;99.90
6581;DHT22;3324;50.796;7.228;2023-08-06T04:44:09;15.20;99.90
6581;DHT22;3324;50.796;7.228;2023-08-06T04:46:35;15.30;99.90
6581;DHT22;3324;50.796;7.228;2023-08-06T04:49:01;15.30;99.90
6581;DHT22;3324;50.796;7.228;2023-08-06T04:51:26;15.30;99.90
6581;DHT22;3324;50.796;7.228;2023-08-06T04:53:52;15.30;99.90
6581;DHT22;3324;50.796;7.228;2023-08-06T04:56:17;15.30;99.90
6581;DHT22;3324;50.796;7.228;2023-08-06T04:58:43;15.30;99.90
6581;DHT22;3324;50.796;7.228;2023-08-06T05:01:09;15.30;99.90
6581;DHT22;3324;50.796;7.228;2023-08-06T05:03:34;15.40;99.90
6581;DHT22;3324;50.796;7.228;2023-08-06T05:06:00;15.30;99.90
6581;DHT22;3324;50.796;7.228;2023-08-06T05:08:25;15.30;99.90
6581;DHT22;3324;50.796;7.228;2023-08-06T05:10:51;15.30;99.90
6581;DHT22;3324;50.796;7.228;2023-08-06T05:13:16;15.30;99.90
6581;DHT22;3324;50.796;7.228;2023-08-06T05:15:42;15.30;99.90
6581;DHT22;3324;50.796;7.228;2023-08-06T05:18:08;15.40;99.90
6581;DHT22;3324;50.796;7.228;2023-08-06T05:20:38;15.40;99.90
6581;DHT22;3324;50.796;7.228;2023-08-06T05:23:04;15.40;99.90
6581;DHT22;3324;50.796;7.228;2023-08-06T05:25:30;15.40;99.90
6581;DHT22;3324;50.796;7.228;2023-08-06T05:27:55;15.40;99.90
6581;DHT22;3324;50.796;7.228;2023-08-06T05:30:21;15.50;99.90
6581;DHT22;3324;50.796;7.228;2023-08-06T05:32:47;15.50;99.90
6581;DHT22;3324;50.796;7.228;2023-08-06T05:35:12;15.50;99.90
6581;DHT22;3324;50.796;7.228;2023-08-06T05:37:38;15.60;99.90
6581;DHT22;3324;50.796;7.228;2023-08-06T05:40:04;15.60;99.90
6581;DHT22;3324;50.796;7.228;2023-08-06T05:42:30;15.70;99.90
6581;DHT22;3324;50.796;7.228;2023-08-06T05:44:55;15.70;99.90
6581;DHT22;3324;50.796;7.228;2023-08-06T05:47:21;15.60;99.90
6581;DHT22;3324;50.796;7.228;2023-08-06T05:49:46;15.60;99.90
6581;DHT22;3324;50.796;7.228;2023-08-06T05:52:12;15.60;99.90
6581;DHT22;3324;50.796;7.228;2023-08-06T05:54:38;15.70;99.90
6581;DHT22;3324;50.796;7.228;2023-08-06T05:57:04;15.70;99.90
6581;DHT22;3324;50.796;7.228;2023-08-06T05:59:29;15.70;99.90
6581;DHT22;3324;50.796;7.228;2023-08-06T06:01:55;15.80;99.90
6581;DHT22;3324;50.796;7.228;2023-08-06T06:04:21;15.90;99.90
6581;DHT22;3324;50.796;7.228;2023-08-06T06:06:46;15.90;99.90
6581;DHT22;3324;50.796;7.228;2023-08-06T06:09:12;15.90;99.90
6581;DHT22;3324;50.796;7.228;2023-08-06T06:11:38;15.90;99.90
6581;DHT22;3324;50.796;7.228;2023-08-06T06:14:03;16.00;99.90
6581;DHT22;3324;50.796;7.228;2023-08-06T06:16:29;15.90;99.90
6581;DHT22;3324;50.796;7.228;2023-08-06T06:18:54;16.00;99.90
6581;DHT22;3324;50.796;7.228;2023-08-06T06:21:20;16.00;99.90
6581;DHT22;3324;50.796;7.228;2023-08-06T06:23:46;16.00;99.90
6581;DHT22;3324;50.796;7.228;2023-08-06T06:26:12;16.00;99.90
6581;DHT22;3324;50.796;7.228;2023-08-06T06:28:38;16.00;99.90
6581;DHT22;3324;50.796;7.228;2023-08-06T06:31:03;16.00;99.90
6581;DHT22;3324;50.796;7.228;2023-08-06T06:33:29;16.00;99.90
6581;DHT22;3324;50.796;7.228;2023-08-06T06:35:55;16.10;99.90
6581;DHT22;3324;50.796;7.228;2023-08-06T06:38:20;16.10;99.90
6581;DHT22;3324;50.796;7.228;2023-08-06T06:40:58;16.10;99.90
6581;DHT22;3324;50.796;7.228;2023-08-06T06:43:25;16.10;99.90
6581;DHT22;3324;50.796;7.228;2023-08-06T06:45:58;16.00;99.90
6581;DHT22;3324;50.796;7.228;2023-08-06T06:48:28;16.00;99.90
6581;DHT22;3324;50.796;7.228;2023-08-06T06:50:54;16.10;99.90
6581;DHT22;3324;50.796;7.228;2023-08-06T06:53:19;16.10;99.90
6581;DHT22;3324;50.796;7.228;2023-08-06T06:55:45;16.20;99.90
6581;DHT22;3324;50.796;7.228;2023-08-06T06:58:15;16.10;99.90
6581;DHT22;3324;50.796;7.228;2023-08-06T07:00:41;16.10;99.90
6581;DHT22;3324;50.796;7.228;2023-08-06T07:03:06;16.10;99.90
6581;DHT22;3324;50.796;7.228;2023-08-06T07:05:32;16.20;99.90
6581;DHT22;3324;50.796;7.228;2023-08-06T07:07:58;16.10;99.90
6581;DHT22;3324;50.796;7.228;2023-08-06T07:10:23;16.20;99.90
6581;DHT22;3324;50.796;7.228;2023-08-06T07:12:49;16.20;99.90
6581;DHT22;3324;50.796;7.228;2023-08-06T07:15:15;16.20;99.90
6581;DHT22;3324;50.796;7.228;2023-08-06T07:17:40;16.20;99.90
6581;DHT22;3324;50.796;7.228;2023-08-06T07:20:06;16.10;99.90
6581;DHT22;3324;50.796;7.228;2023-08-06T07:22:32;16.20;99.90
6581;DHT22;3324;50.796;7.228;2023-08-06T07:24:58;16.20;99.90
6581;DHT22;3324;50.796;7.228;2023-08-06T07:27:24;16.30;99.90
6581;DHT22;3324;50.796;7.228;2023-08-06T07:29:50;16.40;99.90
6581;DHT22;3324;50.796;7.228;2023-08-06T07:32:16;16.30;99.90
6581;DHT22;3324;50.796;7.228;2023-08-06T07:34:41;16.40;99.90
6581;DHT22;3324;50.796;7.228;2023-08-06T07:37:07;16.50;99.90
6581;DHT22;3324;50.796;7.228;2023-08-06T07:39:32;16.50;99.90
6581;DHT22;3324;50.796;7.228;2023-08-06T07:41:58;16.60;99.90
6581;DHT22;3324;50.796;7.228;2023-08-06T07:44:24;16.60;99.90
6581;DHT22;3324;50.796;7.228;2023-08-06T07:46:50;16.60;99.90
6581;DHT22;3324;50.796;7.228;2023-08-06T07:49:15;16.70;99.90
6581;DHT22;3324;50.796;7.228;2023-08-06T07:51:41;16.70;99.90
6581;DHT22;3324;50.796;7.228;2023-08-06T07:54:07;16.80;99.90
6581;DHT22;3324;50.796;7.228;2023-08-06T07:56:33;16.80;99.90
6581;DHT22;3324;50.796;7.228;2023-08-06T07:58:58;16.80;99.90
6581;DHT22;3324;50.796;7.228;2023-08-06T08:01:24;16.80;99.90
6581;DHT22;3324;50.796;7.228;2023-08-06T08:03:49;16.70;99.90
6581;DHT22;3324;50.796;7.228;2023-08-06T08:06:15;16.70;99.90
6581;DHT22;3324;50.796;7.228;2023-08-06T08:08:41;16.70;99.90
6581;DHT22;3324;50.796;7.228;2023-08-06T08:11:06;16.70;99.90
6581;DHT22;3324;50.796;7.228;2023-08-06T08:13:32;16.80;99.90
6581;DHT22;3324;50.796;7.228;2023-08-06T08:15:59;16.80;99.90
6581;DHT22;3324;50.796;7.228;2023-08-06T08:18:25;16.90;99.90
6581;DHT22;3324;50.796;7.228;2023-08-06T08:20:51;16.90;99.90
6581;DHT22;3324;50.796;7.228;2023-08-06T08:23:16;17.00;99.90
6581;DHT22;3324;50.796;7.228;2023-08-06T08:25:42;17.00;99.90
6581;DHT22;3324;50.796;7.228;2023-08-06T08:28:08;17.10;99.90
6581;DHT22;3324;50.796;7.228;2023-08-06T08:30:33;17.10;99.90
6581;DHT22;3324;50.796;7.228;2023-08-06T08:32:59;17.20;99.90
6581;DHT22;3324;50.796;7.228;2023-08-06T08:35:25;17.30;99.90
6581;DHT22;3324;50.796;7.228;2023-08-06T08:37:50;17.30;99.90
6581;DHT22;3324;50.796;7.228;2023-08-06T08:40:16;17.30;99.90
6581;DHT22;3324;50.796;7.228;2023-08-06T08:42:42;17.20;99.90
6581;DHT22;3324;50.796;7.228;2023-08-06T08:45:13;17.30;99.90
6581;DHT22;3324;50.796;7.228;2023-08-06T08:47:42;17.30;99.90
6581;DHT22;3324;50.796;7.228;2023-08-06T08:50:09;17.30;99.90
6581;DHT22;3324;50.796;7.228;2023-08-06T08:52:36;17.30;99.90
6581;DHT22;3324;50.796;7.228;2023-08-06T08:55:02;17.40;99.90
6581;DHT22;3324;50.796;7.228;2023-08-06T08:57:27;17.50;99.90
6581;DHT22;3324;50.796;7.228;2023-08-06T08:59:53;17.50;99.90
6581;DHT22;3324;50.796;7.228;2023-08-06T09:02:21;17.70;99.90
6581;DHT22;3324;50.796;7.228;2023-08-06T09:04:48;17.70;99.90
6581;DHT22;3324;50.796;7.228;2023-08-06T09:07:17;17.70;99.90
6581;DHT22;3324;50.796;7.228;2023-08-06T09:09:43;17.60;99.90
6581;DHT22;3324;50.796;7.228;2023-08-06T09:12:17;17.60;99.90
6581;DHT22;3324;50.796;7.228;2023-08-06T09:14:43;17.60;99.90
6581;DHT22;3324;50.796;7.228;2023-08-06T09:17:09;17.60;99.90
6581;DHT22;3324;50.796;7.228;2023-08-06T09:19:39;17.50;99.90
6581;DHT22;3324;50.796;7.228;2023-08-06T09:22:11;17.40;99.90
6581;DHT22;3324;50.796;7.228;2023-08-06T09:24:39;17.30;99.90
6581;DHT22;3324;50.796;7.228;2023-08-06T09:27:13;17.30;99.90
6581;DHT22;3324;50.796;7.228;2023-08-06T09:29:43;17.20;99.90
6581;DHT22;3324;50.796;7.228;2023-08-06T09:32:09;17.20;99.90
6581;DHT22;3324;50.796;7.228;2023-08-06T09:34:34;17.20;99.90
6581;DHT22;3324;50.796;7.228;2023-08-06T09:37:00;17.30;99.90
6581;DHT22;3324;50.796;7.228;2023-08-06T09:39:30;17.30;99.90
6581;DHT22;3324;50.796;7.228;2023-08-06T09:41:58;17.30;99.90
6581;DHT22;3324;50.796;7.228;2023-08-06T09:44:25;17.30;99.90
6581;DHT22;3324;50.796;7.228;2023-08-06T09:46:56;17.30;99.90
6581;DHT22;3324;50.796;7.228;2023-08-06T09:49:26;17.30;99.90
6581;DHT22;3324;50.796;7.228;2023-08-06T09:51:53;17.20;99.90
6581;DHT22;3324;50.796;7.228;2023-08-06T09:54:22;17.30;99.90
6581;DHT22;3324;50.796;7.228;2023-08-06T09:56:48;17.40;99.90
6581;DHT22;3324;50.796;7.228;2023-08-06T09:59:14;17.40;99.90
6581;DHT22;3324;50.796;7.228;2023-08-06T10:01:41;17.40;99.90
6581;DHT22;3324;50.796;7.228;2023-08-06T10:04:07;17.40;99.90
6581;DHT22;3324;50.796;7.228;2023-08-06T10:06:34;17.40;99.90
6581;DHT22;3324;50.796;7.228;2023-08-06T10:09:06;17.40;99.90
6581;DHT22;3324;50.796;7.228;2023-08-06T10:11:31;17.20;99.90
6581;DHT22;3324;50.796;7.228;2023-08-06T10:14:16;17.10;99.90
6581;DHT22;3324;50.796;7.228;2023-08-06T10:16:44;17.00;99.90
6581;DHT22;3324;50.796;7.228;2023-08-06T10:19:11;16.90;99.90
6581;DHT22;3324;50.796;7.228;2023-08-06T10:21:40;16.90;99.90
6581;DHT22;3324;50.796;7.228;2023-08-06T10:24:09;16.80;99.90
6581;DHT22;3324;50.796;7.228;2023-08-06T10:26:37;16.70;99.90
6581;DHT22;3324;50.796;7.228;2023-08-06T10:29:35;16.60;99.90
6581;DHT22;3324;50.796;7.228;2023-08-06T10:32:04;16.50;99.90
6581;DHT22;3324;50.796;7.228;2023-08-06T10:34:54;16.50;99.90
6581;DHT22;3324;50.796;7.228;2023-08-06T10:37:24;16.40;99.90
6581;DHT22;3324;50.796;7.228;2023-08-06T10:39:51;16.40;99.90
6581;DHT22;3324;50.796;7.228;2023-08-06T10:42:28;16.20;99.90
6581;DHT22;3324;50.796;7.228;2023-08-06T10:45:12;16.10;99.90
6581;DHT22;3324;50.796;7.228;2023-08-06T10:47:39;16.00;99.90
6581;DHT22;3324;50.796;7.228;2023-08-06T10:50:07;16.00;99.90
6581;DHT22;3324;50.796;7.228;2023-08-06T10:52:34;15.90;99.90
6581;DHT22;3324;50.796;7.228;2023-08-06T10:55:00;15.80;99.90
6581;DHT22;3324;50.796;7.228;2023-08-06T10:57:26;15.80;99.90
6581;DHT22;3324;50.796;7.228;2023-08-06T10:59:51;15.80;99.90
6581;DHT22;3324;50.796;7.228;2023-08-06T11:02:17;15.70;99.90
6581;DHT22;3324;50.796;7.228;2023-08-06T11:04:43;15.60;99.90
6581;DHT22;3324;50.796;7.228;2023-08-06T11:07:08;15.60;99.90
6581;DHT22;3324;50.796;7.228;2023-08-06T11:09:34;15.60;99.90
6581;DHT22;3324;50.796;7.228;2023-08-06T11:11:59;15.50;99.90
6581;DHT22;3324;50.796;7.228;2023-08-06T11:14:25;15.60;99.90
6581;DHT22;3324;50.796;7.228;2023-08-06T11:16:51;15.60;99.90
6581;DHT22;3324;50.796;7.228;2023-08-06T11:19:16;15.50;99.90
6581;DHT22;3324;50.796;7.228;2023-08-06T11:21:43;15.50;99.90
6581;DHT22;3324;50.796;7.228;2023-08-06T11:24:12;15.60;99.90
6581;DHT22;3324;50.796;7.228;2023-08-06T11:26:38;15.60;99.90
6581;DHT22;3324;50.796;7.228;2023-08-06T11:29:05;15.60;99.90
6581;DHT22;3324;50.796;7.228;2023-08-06T11:31:31;15.50;99.90
6581;DHT22;3324;50.796;7.228;2023-08-06T11:33:57;15.50;99.90
6581;DHT22;3324;50.796;7.228;2023-08-06T11:36:32;15.50;99.90
6581;DHT22;3324;50.796;7.228;2023-08-06T11:38:59;15.40;99.90
6581;DHT22;3324;50.796;7.228;2023-08-06T11:41:27;15.40;99.90
6581;DHT22;3324;50.796;7.228;2023-08-06T11:43:53;15.40;99.90
6581;DHT22;3324;50.796;7.228;2023-08-06T11:46:18;15.30;99.90
6581;DHT22;3324;50.796;7.228;2023-08-06T11:48:54;15.30;99.90
6581;DHT22;3324;50.796;7.228;2023-08-06T11:51:24;15.30;99.90
6581;DHT22;3324;50.796;7.228;2023-08-06T11:53:58;15.30;99.90
6581;DHT22;3324;50.796;7.228;2023-08-06T11:56:25;15.30;99.90
6581;DHT22;3324;50.796;7.228;2023-08-06T11:58:51;15.40;99.90
6581;DHT22;3324;50.796;7.228;2023-08-06T12:01:18;15.40;99.90
6581;DHT22;3324;50.796;7.228;2023-08-06T12:03:43;15.40;99.90
6581;DHT22;3324;50.796;7.228;2023-08-06T12:06:09;15.50;99.90
6581;DHT22;3324;50.796;7.228;2023-08-06T12:08:35;15.50;99.90
6581;DHT22;3324;50.796;7.228;2023-08-06T12:11:00;15.60;99.90
6581;DHT22;3324;50.796;7.228;2023-08-06T12:13:26;15.60;99.90
6581;DHT22;3324;50.796;7.228;2023-08-06T12:15:53;15.60;99.90
6581;DHT22;3324;50.796;7.228;2023-08-06T12:18:19;15.60;99.90
6581;DHT22;3324;50.796;7.228;2023-08-06T12:20:45;15.60;99.90
6581;DHT22;3324;50.796;7.228;2023-08-06T12:23:10;15.70;99.90
6581;DHT22;3324;50.796;7.228;2023-08-06T12:25:40;15.70;99.90
6581;DHT22;3324;50.796;7.228;2023-08-06T12:28:06;15.70;99.90
6581;DHT22;3324;50.796;7.228;2023-08-06T12:30:33;15.80;99.90
6581;DHT22;3324;50.796;7.228;2023-08-06T12:32:58;15.80;99.90
6581;DHT22;3324;50.796;7.228;2023-08-06T12:35:24;15.80;99.90
6581;DHT22;3324;50.796;7.228;2023-08-06T12:37:51;15.80;99.90
6581;DHT22;3324;50.796;7.228;2023-08-06T12:40:20;15.90;99.90
6581;DHT22;3324;50.796;7.228;2023-08-06T12:42:46;15.80;99.90
6581;DHT22;3324;50.796;7.228;2023-08-06T12:45:11;15.90;99.90
6581;DHT22;3324;50.796;7.228;2023-08-06T12:47:37;15.90;99.90
6581;DHT22;3324;50.796;7.228;2023-08-06T12:50:03;15.90;99.90
6581;DHT22;3324;50.796;7.228;2023-08-06T12:52:28;16.00;99.90
6581;DHT22;3324;50.796;7.228;2023-08-06T12:54:54;16.00;99.90
6581;DHT22;3324;50.796;7.228;2023-08-06T12:57:20;16.00;99.90
6581;DHT22;3324;50.796;7.228;2023-08-06T12:59:45;16.00;99.90
6581;DHT22;3324;50.796;7.228;2023-08-06T13:02:11;16.00;99.90
6581;DHT22;3324;50.796;7.228;2023-08-06T13:04:37;16.00;99.90
6581;DHT22;3324;50.796;7.228;2023-08-06T13:07:02;16.00;99.90
6581;DHT22;3324;50.796;7.228;2023-08-06T13:09:28;16.00;99.90
6581;DHT22;3324;50.796;7.228;2023-08-06T13:11:55;16.00;99.90
6581;DHT22;3324;50.796;7.228;2023-08-06T13:14:20;16.00;99.90
6581;DHT22;3324;50.796;7.228;2023-08-06T13:16:46;16.00;99.90
6581;DHT22;3324;50.796;7.228;2023-08-06T13:19:12;16.00;99.90
6581;DHT22;3324;50.796;7.228;2023-08-06T13:24:07;15.90;99.90
6581;DHT22;3324;50.796;7.228;2023-08-06T13:26:33;15.90;99.90
6581;DHT22;3324;50.796;7.228;2023-08-06T13:28:59;15.80;99.90
6581;DHT22;3324;50.796;7.228;2023-08-06T13:31:26;15.80;99.90
6581;DHT22;3324;50.796;7.228;2023-08-06T13:33:52;15.80;99.90
6581;DHT22;3324;50.796;7.228;2023-08-06T13:36:20;15.80;99.90
6581;DHT22;3324;50.796;7.228;2023-08-06T13:38:46;15.90;99.90
6581;DHT22;3324;50.796;7.228;2023-08-06T13:41:12;15.80;99.90
6581;DHT22;3324;50.796;7.228;2023-08-06T13:43:38;15.80;99.90
6581;DHT22;3324;50.796;7.228;2023-08-06T13:46:03;15.80;99.90
6581;DHT22;3324;50.796;7.228;2023-08-06T13:48:29;15.80;99.90
6581;DHT22;3324;50.796;7.228;2023-08-06T13:50:55;15.80;99.90
6581;DHT22;3324;50.796;7.228;2023-08-06T13:53:20;15.80;99.90
6581;DHT22;3324;50.796;7.228;2023-08-06T13:55:46;15.70;99.90
6581;DHT22;3324;50.796;7.228;2023-08-06T13:58:11;15.80;99.90
6581;DHT22;3324;50.796;7.228;2023-08-06T14:00:37;15.80;99.90
6581;DHT22;3324;50.796;7.228;2023-08-06T14:03:02;15.80;99.90
6581;DHT22;3324;50.796;7.228;2023-08-06T14:05:28;15.80;99.90
6581;DHT22;3324;50.796;7.228;2023-08-06T14:07:54;15.80;99.90
6581;DHT22;3324;50.796;7.228;2023-08-06T14:10:19;15.80;99.90
6581;DHT22;3324;50.796;7.228;2023-08-06T14:12:45;15.80;99.90
6581;DHT22;3324;50.796;7.228;2023-08-06T14:15:11;15.80;99.90
6581;DHT22;3324;50.796;7.228;2023-08-06T14:17:36;15.80;99.90
6581;DHT22;3324;50.796;7.228;2023-08-06T14:20:03;15.80;99.90
6581;DHT22;3324;50.796;7.228;2023-08-06T14:22:30;15.90;99.90
6581;DHT22;3324;50.796;7.228;2023-08-06T14:24:57;15.80;99.90
6581;DHT22;3324;50.796;7.228;2023-08-06T14:27:23;15.90;99.90
6581;DHT22;3324;50.796;7.228;2023-08-06T14:29:48;15.90;99.90
6581;DHT22;3324;50.796;7.228;2023-08-06T14:32:14;15.80;99.90
6581;DHT22;3324;50.796;7.228;2023-08-06T14:34:43;15.90;99.90
6581;DHT22;3324;50.796;7.228;2023-08-06T14:37:09;16.00;99.90
6581;DHT22;3324;50.796;7.228;2023-08-06T14:39:35;15.90;99.90
6581;DHT22;3324;50.796;7.228;2023-08-06T14:42:01;15.90;99.90
6581;DHT22;3324;50.796;7.228;2023-08-06T14:44:27;15.80;99.90
6581;DHT22;3324;50.796;7.228;2023-08-06T14:46:53;15.80;99.90
6581;DHT22;3324;50.796;7.228;2023-08-06T14:49:18;15.80;99.90
6581;DHT22;3324;50.796;7.228;2023-08-06T14:51:44;15.90;99.90
6581;DHT22;3324;50.796;7.228;2023-08-06T14:54:09;15.90;99.90
6581;DHT22;3324;50.796;7.228;2023-08-06T14:56:35;15.90;99.90
6581;DHT22;3324;50.796;7.228;2023-08-06T14:59:01;16.00;99.90
6581;DHT22;3324;50.796;7.228;2023-08-06T15:01:26;16.00;99.90
6581;DHT22;3324;50.796;7.228;2023-08-06T15:03:52;16.00;99.90
6581;DHT22;3324;50.796;7.228;2023-08-06T15:06:17;16.10;99.90
6581;DHT22;3324;50.796;7.228;2023-08-06T15:08:43;16.00;99.90
6581;DHT22;3324;50.796;7.228;2023-08-06T15:11:10;16.00;99.90
6581;DHT22;3324;50.796;7.228;2023-08-06T15:13:36;16.00;99.90
6581;DHT22;3324;50.796;7.228;2023-08-06T15:16:02;16.00;99.90
6581;DHT22;3324;50.796;7.228;2023-08-06T15:18:27;15.90;99.90
6581;DHT22;3324;50.796;7.228;2023-08-06T15:20:53;15.90;99.90
6581;DHT22;3324;50.796;7.228;2023-08-06T15:23:18;15.90;99.90
6581;DHT22;3324;50.796;7.228;2023-08-06T15:25:45;16.00;99.90
6581;DHT22;3324;50.796;7.228;2023-08-06T15:28:10;16.00;99.90
6581;DHT22;3324;50.796;7.228;2023-08-06T15:30:36;16.00;99.90
6581;DHT22;3324;50.796;7.228;2023-08-06T15:33:02;16.00;99.90
6581;DHT22;3324;50.796;7.228;2023-08-06T15:35:28;16.10;99.90
6581;DHT22;3324;50.796;7.228;2023-08-06T15:37:53;16.10;99.90
6581;DHT22;3324;50.796;7.228;2023-08-06T15:40:19;16.10;99.90
6581;DHT22;3324;50.796;7.228;2023-08-06T15:42:44;16.10;99.90
6581;DHT22;3324;50.796;7.228;2023-08-06T15:45:10;16.10;99.90
6581;DHT22;3324;50.796;7.228;2023-08-06T15:47:36;16.10;99.90
6581;DHT22;3324;50.796;7.228;2023-08-06T15:50:07;16.10;99.90
6581;DHT22;3324;50.796;7.228;2023-08-06T15:52:34;16.10;99.90
6581;DHT22;3324;50.796;7.228;2023-08-06T15:55:00;16.10;99.90
6581;DHT22;3324;50.796;7.228;2023-08-06T15:57:31;16.10;99.90
6581;DHT22;3324;50.796;7.228;2023-08-06T15:59:56;16.10;99.90
6581;DHT22;3324;50.796;7.228;2023-08-06T16:02:22;16.10;99.90
6581;DHT22;3324;50.796;7.228;2023-08-06T16:04:49;16.10;99.90
6581;DHT22;3324;50.796;7.228;2023-08-06T16:07:15;16.10;99.90
6581;DHT22;3324;50.796;7.228;2023-08-06T16:09:40;16.10;99.90